sensor_id;sensor_type;location;lat;lon;timestamp;temperature;humidity
18502;DHT22;68437;52.236;5.710;2023-09-18T00:00:18;18.10;99.90
18502;DHT22;68437;52.236;5.710;2023-09-18T00:02:46;18.10;99.90
18502;DHT22;68437;52.236;5.710;2023-09-18T00:05:13;18.10;99.90
18502;DHT22;68437;52.236;5.710;2023-09-18T00:07:41;18.10;99.90
18502;DHT22;68437;52.236;5.710;2023-09-18T00:10:09;18.10;99.90
18502;DHT22;68437;52.236;5.710;2023-09-18T00:12:37;18.10;99.90
18502;DHT22;68437;52.236;5.710;2023-09-18T00:15:06;18.20;99.90
18502;DHT22;68437;52.236;5.710;2023-09-18T00:17:34;18.20;99.90
18502;DHT22;68437;52.236;5.710;2023-09-18T00:20:01;18.20;99.90
18502;DHT22;68437;52.236;5.710;2023-09-18T00:22:28;18.30;99.90
18502;DHT22;68437;52.236;5.710;2023-09-18T00:24:55;18.30;99.90
18502;DHT22;68437;52.236;5.710;2023-09-18T00:27:22;18.30;99.90
18502;DHT22;68437;52.236;5.710;2023-09-18T00:29:49;18.30;99.90
18502;DHT22;68437;52.236;5.710;2023-09-18T00:32:17;18.30;99.90
18502;DHT22;68437;52.236;5.710;2023-09-18T00:34:44;18.30;99.90
18502;DHT22;68437;52.236;5.710;2023-09-18T00:37:10;18.30;99.90
18502;DHT22;68437;52.236;5.710;2023-09-18T00:39:38;18.30;99.90
18502;DHT22;68437;52.236;5.710;2023-09-18T00:42:05;18.30;99.90
18502;DHT22;68437;52.236;5.710;2023-09-18T00:44:31;18.30;99.90
18502;DHT22;68437;52.236;5.710;2023-09-18T00:46:58;18.30;99.90
18502;DHT22;68437;52.236;5.710;2023-09-18T00:49:27;18.30;99.90
18502;DHT22;68437;52.236;5.710;2023-09-18T00:51:54;18.30;99.90
18502;DHT22;68437;52.236;5.710;2023-09-18T00:54:21;18.30;99.90
18502;DHT22;68437;52.236;5.710;2023-09-18T00:56:48;18.30;99.90
18502;DHT22;68437;52.236;5.710;2023-09-18T00:59:19;18.30;99.90
18502;DHT22;68437;52.236;5.710;2023-09-18T01:01:48;18.30;99.90
18502;DHT22;68437;52.236;5.710;2023-09-18T01:04:16;18.30;99.90
18502;DHT22;68437;52.236;5.710;2023-09-18T01:06:44;18.30;99.90
18502;DHT22;68437;52.236;5.710;2023-09-18T01:09:16;18.30;99.90
18502;DHT22;68437;52.236;5.710;2023-09-18T01:11:49;18.30;99.90
18502;DHT22;68437;52.236;5.710;2023-09-18T01:14:23;18.30;99.90
18502;DHT22;68437;52.236;5.710;2023-09-18T01:16:54;18.30;99.90
18502;DHT22;68437;52.236;5.710;2023-09-18T01:19:37;18.30;99.90
18502;DHT22;68437;52.236;5.710;2023-09-18T01:22:07;18.20;99.90
18502;DHT22;68437;52.236;5.710;2023-09-18T01:24:36;18.30;99.90
18502;DHT22;68437;52.236;5.710;2023-09-18T01:27:04;18.30;99.90
18502;DHT22;68437;52.236;5.710;2023-09-18T01:29:32;18.30;99.90
18502;DHT22;68437;52.236;5.710;2023-09-18T01:31:59;18.20;99.90
18502;DHT22;68437;52.236;5.710;2023-09-18T01:34:28;18.20;99.90
18502;DHT22;68437;52.236;5.710;2023-09-18T01:36:57;18.20;99.90
18502;DHT22;68437;52.236;5.710;2023-09-18T01:39:25;18.20;99.90
18502;DHT22;68437;52.236;5.710;2023-09-18T01:41:58;18.20;99.90
18502;DHT22;68437;52.236;5.710;2023-09-18T01:44:25;18.20;99.90
18502;DHT22;68437;52.236;5.710;2023-09-18T01:46:52;18.20;99.90
18502;DHT22;68437;52.236;5.710;2023-09-18T01:49:27;18.20;99.90
18502;DHT22;68437;52.236;5.710;2023-09-18T01:51:54;18.20;99.90
18502;DHT22;68437;52.236;5.710;2023-09-18T01:54:21;18.20;99.90
18502;DHT22;68437;52.236;5.710;2023-09-18T01:56:47;18.20;99.90
18502;DHT22;68437;52.236;5.710;2023-09-18T01:59:16;18.20;99.90
18502;DHT22;68437;52.236;5.710;2023-09-18T02:01:43;18.20;99.90
18502;DHT22;68437;52.236;5.710;2023-09-18T02:04:10;18.30;99.90
18502;DHT22;68437;52.236;5.710;2023-09-18T02:06:37;18.30;99.90
18502;DHT22;68437;52.236;5.710;2023-09-18T02:09:05;18.30;99.90
18502;DHT22;68437;52.236;5.710;2023-09-18T02:11:33;18.30;99.90
18502;DHT22;68437;52.236;5.710;2023-09-18T02:14:00;18.30;99.90
18502;DHT22;68437;52.236;5.710;2023-09-18T02:16:32;18.30;99.90
18502;DHT22;68437;52.236;5.710;2023-09-18T02:18:59;18.30;99.90
18502;DHT22;68437;52.236;5.710;2023-09-18T02:21:26;18.30;99.90
18502;DHT22;68437;52.236;5.710;2023-09-18T02:23:53;18.30;99.90
18502;DHT22;68437;52.236;5.710;2023-09-18T02:26:21;18.40;99.90
18502;DHT22;68437;52.236;5.710;2023-09-18T02:28:48;18.40;99.90
18502;DHT22;68437;52.236;5.710;2023-09-18T02:31:15;18.40;99.90
18502;DHT22;68437;52.236;5.710;2023-09-18T02:33:44;18.40;99.90
18502;DHT22;68437;52.236;5.710;2023-09-18T02:36:12;18.40;99.90
18502;DHT22;68437;52.236;5.710;2023-09-18T02:38:39;18.40;99.90
18502;DHT22;68437;52.236;5.710;2023-09-18T02:41:06;18.40;99.90
18502;DHT22;68437;52.236;5.710;2023-09-18T02:43:32;18.50;99.90
18502;DHT22;68437;52.236;5.710;2023-09-18T02:45:59;18.50;99.90
18502;DHT22;68437;52.236;5.710;2023-09-18T02:48:26;18.50;99.90
18502;DHT22;68437;52.236;5.710;2023-09-18T02:50:54;18.50;99.90
18502;DHT22;68437;52.236;5.710;2023-09-18T02:53:22;18.50;99.90
18502;DHT22;68437;52.236;5.710;2023-09-18T02:55:52;18.50;99.90
18502;DHT22;68437;52.236;5.710;2023-09-18T02:58:20;18.50;99.90
18502;DHT22;68437;52.236;5.710;2023-09-18T03:00:49;18.50;99.90
18502;DHT22;68437;52.236;5.710;2023-09-18T03:03:17;18.50;99.90
18502;DHT22;68437;52.236;5.710;2023-09-18T03:05:44;18.50;99.90
18502;DHT22;68437;52.236;5.710;2023-09-18T03:08:14;18.50;99.90
18502;DHT22;68437;52.236;5.710;2023-09-18T03:10:42;18.50;99.90
18502;DHT22;68437;52.236;5.710;2023-09-18T03:13:10;18.60;99.90
18502;DHT22;68437;52.236;5.710;2023-09-18T03:15:37;18.60;99.90
18502;DHT22;68437;52.236;5.710;2023-09-18T03:18:06;18.50;99.90
18502;DHT22;68437;52.236;5.710;2023-09-18T03:20:34;18.60;99.90
18502;DHT22;68437;52.236;5.710;2023-09-18T03:23:01;18.60;99.90
18502;DHT22;68437;52.236;5.710;2023-09-18T03:25:30;18.60;99.90
18502;DHT22;68437;52.236;5.710;2023-09-18T03:27:57;18.60;99.90
18502;DHT22;68437;52.236;5.710;2023-09-18T03:30:24;18.60;99.90
18502;DHT22;68437;52.236;5.710;2023-09-18T03:32:52;18.60;99.90
18502;DHT22;68437;52.236;5.710;2023-09-18T03:35:19;18.60;99.90
18502;DHT22;68437;52.236;5.710;2023-09-18T03:37:47;18.60;99.90
18502;DHT22;68437;52.236;5.710;2023-09-18T03:40:14;18.60;99.90
18502;DHT22;68437;52.236;5.710;2023-09-18T03:42:42;18.60;99.90
18502;DHT22;68437;52.236;5.710;2023-09-18T03:45:09;18.60;99.90
18502;DHT22;68437;52.236;5.710;2023-09-18T03:47:37;18.60;99.90
18502;DHT22;68437;52.236;5.710;2023-09-18T03:50:06;18.60;99.90
18502;DHT22;68437;52.236;5.710;2023-09-18T03:52:33;18.60;99.90
18502;DHT22;68437;52.236;5.710;2023-09-18T03:55:00;18.60;99.90
18502;DHT22;68437;52.236;5.710;2023-09-18T03:57:27;18.60;99.90
18502;DHT22;68437;52.236;5.710;2023-09-18T03:59:55;18.60;99.90
18502;DHT22;68437;52.236;5.710;2023-09-18T04:02:24;18.60;99.90
18502;DHT22;68437;52.236;5.710;2023-09-18T04:04:51;18.60;99.90
18502;DHT22;68437;52.236;5.710;2023-09-18T04:07:18;18.60;99.90
18502;DHT22;68437;52.236;5.710;2023-09-18T04:09:45;18.60;99.90
18502;DHT22;68437;52.236;5.710;2023-09-18T04:12:12;18.60;99.90
18502;DHT22;68437;52.236;5.710;2023-09-18T04:14:39;18.60;99.90
18502;DHT22;68437;52.236;5.710;2023-09-18T04:17:08;18.60;99.90
18502;DHT22;68437;52.236;5.710;2023-09-18T04:19:35;18.60;99.90
18502;DHT22;68437;52.236;5.710;2023-09-18T04:22:01;18.60;99.90
18502;DHT22;68437;52.236;5.710;2023-09-18T04:24:28;18.60;99.90
18502;DHT22;68437;52.236;5.710;2023-09-18T04:26:55;18.60;99.90
18502;DHT22;68437;52.236;5.710;2023-09-18T04:29:22;18.50;99.90
18502;DHT22;68437;52.236;5.710;2023-09-18T04:31:49;18.60;99.90
18502;DHT22;68437;52.236;5.710;2023-09-18T04:34:17;18.50;99.90
18502;DHT22;68437;52.236;5.710;2023-09-18T04:36:44;18.50;99.90
18502;DHT22;68437;52.236;5.710;2023-09-18T04:39:11;18.50;99.90
18502;DHT22;68437;52.236;5.710;2023-09-18T04:41:39;18.50;99.90
18502;DHT22;68437;52.236;5.710;2023-09-18T04:44:06;18.50;99.90
18502;DHT22;68437;52.236;5.710;2023-09-18T04:46:33;18.50;99.90
18502;DHT22;68437;52.236;5.710;2023-09-18T04:49:02;18.50;99.90
18502;DHT22;68437;52.236;5.710;2023-09-18T04:51:31;18.50;99.90
18502;DHT22;68437;52.236;5.710;2023-09-18T04:53:59;18.50;99.90
18502;DHT22;68437;52.236;5.710;2023-09-18T04:56:26;18.50;99.90
18502;DHT22;68437;52.236;5.710;2023-09-18T04:58:52;18.50;99.90
18502;DHT22;68437;52.236;5.710;2023-09-18T05:01:19;18.50;99.90
18502;DHT22;68437;52.236;5.710;2023-09-18T05:03:46;18.50;99.90
18502;DHT22;68437;52.236;5.710;2023-09-18T05:06:14;18.50;99.90
18502;DHT22;68437;52.236;5.710;2023-09-18T05:08:43;18.50;99.90
18502;DHT22;68437;52.236;5.710;2023-09-18T05:11:10;18.50;99.90
18502;DHT22;68437;52.236;5.710;2023-09-18T05:13:36;18.50;99.90
18502;DHT22;68437;52.236;5.710;2023-09-18T05:16:03;18.50;99.90
18502;DHT22;68437;52.236;5.710;2023-09-18T05:18:31;18.50;99.90
18502;DHT22;68437;52.236;5.710;2023-09-18T05:20:58;18.50;99.90
18502;DHT22;68437;52.236;5.710;2023-09-18T05:23:25;18.50;99.90
18502;DHT22;68437;52.236;5.710;2023-09-18T05:25:53;18.60;99.90
18502;DHT22;68437;52.236;5.710;2023-09-18T05:28:20;18.60;99.90
18502;DHT22;68437;52.236;5.710;2023-09-18T05:30:47;18.70;99.90
18502;DHT22;68437;52.236;5.710;2023-09-18T05:33:13;18.60;99.90
18502;DHT22;68437;52.236;5.710;2023-09-18T05:35:41;18.70;99.90
18502;DHT22;68437;52.236;5.710;2023-09-18T05:38:09;18.60;99.90
18502;DHT22;68437;52.236;5.710;2023-09-18T05:40:36;18.60;99.90
18502;DHT22;68437;52.236;5.710;2023-09-18T05:43:04;18.60;99.90
18502;DHT22;68437;52.236;5.710;2023-09-18T05:45:33;18.60;99.90
18502;DHT22;68437;52.236;5.710;2023-09-18T05:47:59;18.60;99.90
18502;DHT22;68437;52.236;5.710;2023-09-18T05:50:30;18.50;99.90
18502;DHT22;68437;52.236;5.710;2023-09-18T05:52:58;18.50;99.90
18502;DHT22;68437;52.236;5.710;2023-09-18T05:55:26;18.50;99.90
18502;DHT22;68437;52.236;5.710;2023-09-18T05:57:53;18.50;99.90
18502;DHT22;68437;52.236;5.710;2023-09-18T06:00:21;18.50;99.90
18502;DHT22;68437;52.236;5.710;2023-09-18T06:02:48;18.50;99.90
18502;DHT22;68437;52.236;5.710;2023-09-18T06:05:17;18.50;99.90
18502;DHT22;68437;52.236;5.710;2023-09-18T06:07:46;18.50;99.90
18502;DHT22;68437;52.236;5.710;2023-09-18T06:10:13;18.50;99.90
18502;DHT22;68437;52.236;5.710;2023-09-18T06:12:40;18.50;99.90
18502;DHT22;68437;52.236;5.710;2023-09-18T06:15:08;18.50;99.90
18502;DHT22;68437;52.236;5.710;2023-09-18T06:17:38;18.50;99.90
18502;DHT22;68437;52.236;5.710;2023-09-18T06:20:06;18.50;99.90
18502;DHT22;68437;52.236;5.710;2023-09-18T06:22:36;18.50;99.90
18502;DHT22;68437;52.236;5.710;2023-09-18T06:25:03;18.40;99.90
18502;DHT22;68437;52.236;5.710;2023-09-18T06:27:30;18.40;99.90
18502;DHT22;68437;52.236;5.710;2023-09-18T06:30:00;18.50;99.90
18502;DHT22;68437;52.236;5.710;2023-09-18T06:32:26;18.50;99.90
18502;DHT22;68437;52.236;5.710;2023-09-18T06:34:55;18.50;99.90
18502;DHT22;68437;52.236;5.710;2023-09-18T06:37:23;18.50;99.90
18502;DHT22;68437;52.236;5.710;2023-09-18T06:39:50;18.60;99.90
18502;DHT22;68437;52.236;5.710;2023-09-18T06:42:17;18.50;99.90
18502;DHT22;68437;52.236;5.710;2023-09-18T06:44:44;18.60;99.90
18502;DHT22;68437;52.236;5.710;2023-09-18T06:47:11;18.60;99.90
18502;DHT22;68437;52.236;5.710;2023-09-18T06:49:37;18.60;99.90
18502;DHT22;68437;52.236;5.710;2023-09-18T06:52:06;18.60;99.90
18502;DHT22;68437;52.236;5.710;2023-09-18T06:54:33;18.60;99.90
18502;DHT22;68437;52.236;5.710;2023-09-18T06:56:59;18.60;99.90
18502;DHT22;68437;52.236;5.710;2023-09-18T06:59:26;18.60;99.90
18502;DHT22;68437;52.236;5.710;2023-09-18T07:01:55;18.60;99.90
18502;DHT22;68437;52.236;5.710;2023-09-18T07:04:22;18.60;99.90
18502;DHT22;68437;52.236;5.710;2023-09-18T07:06:49;18.70;99.90
18502;DHT22;68437;52.236;5.710;2023-09-18T07:09:18;18.70;99.90
18502;DHT22;68437;52.236;5.710;2023-09-18T07:11:46;18.70;99.90
18502;DHT22;68437;52.236;5.710;2023-09-18T07:14:14;18.70;99.90
18502;DHT22;68437;52.236;5.710;2023-09-18T07:16:41;18.80;99.90
18502;DHT22;68437;52.236;5.710;2023-09-18T07:19:07;18.80;99.90
18502;DHT22;68437;52.236;5.710;2023-09-18T07:21:37;18.90;99.90
18502;DHT22;68437;52.236;5.710;2023-09-18T07:24:06;18.90;99.90
18502;DHT22;68437;52.236;5.710;2023-09-18T07:26:34;19.00;99.90
18502;DHT22;68437;52.236;5.710;2023-09-18T07:29:01;19.00;99.90
18502;DHT22;68437;52.236;5.710;2023-09-18T07:31:28;19.00;99.90
18502;DHT22;68437;52.236;5.710;2023-09-18T07:33:55;19.00;99.90
18502;DHT22;68437;52.236;5.710;2023-09-18T07:36:22;19.00;99.90
18502;DHT22;68437;52.236;5.710;2023-09-18T07:38:49;19.00;99.90
18502;DHT22;68437;52.236;5.710;2023-09-18T07:41:15;19.10;99.90
18502;DHT22;68437;52.236;5.710;2023-09-18T07:43:44;19.00;99.90
18502;DHT22;68437;52.236;5.710;2023-09-18T07:46:11;19.10;99.90
18502;DHT22;68437;52.236;5.710;2023-09-18T07:48:37;19.10;99.90
18502;DHT22;68437;52.236;5.710;2023-09-18T07:51:04;19.10;99.90
18502;DHT22;68437;52.236;5.710;2023-09-18T07:53:31;19.10;99.90
18502;DHT22;68437;52.236;5.710;2023-09-18T07:55:58;19.10;99.90
18502;DHT22;68437;52.236;5.710;2023-09-18T07:58:27;19.10;99.90
18502;DHT22;68437;52.236;5.710;2023-09-18T08:00:56;19.00;99.90
18502;DHT22;68437;52.236;5.710;2023-09-18T08:03:24;19.10;99.90
18502;DHT22;68437;52.236;5.710;2023-09-18T08:05:52;19.10;99.90
18502;DHT22;68437;52.236;5.710;2023-09-18T08:08:20;19.10;99.90
18502;DHT22;68437;52.236;5.710;2023-09-18T08:10:47;19.10;99.90
18502;DHT22;68437;52.236;5.710;2023-09-18T08:13:14;19.10;99.90
18502;DHT22;68437;52.236;5.710;2023-09-18T08:15:41;19.10;99.90
18502;DHT22;68437;52.236;5.710;2023-09-18T08:18:10;19.10;99.90
18502;DHT22;68437;52.236;5.710;2023-09-18T08:20:40;19.20;99.90
18502;DHT22;68437;52.236;5.710;2023-09-18T08:23:08;19.20;99.90
18502;DHT22;68437;52.236;5.710;2023-09-18T08:25:35;19.20;99.90
18502;DHT22;68437;52.236;5.710;2023-09-18T08:28:02;19.30;99.90
18502;DHT22;68437;52.236;5.710;2023-09-18T08:30:30;19.30;99.90
18502;DHT22;68437;52.236;5.710;2023-09-18T08:32:57;19.30;99.90
18502;DHT22;68437;52.236;5.710;2023-09-18T08:35:25;19.30;99.90
18502;DHT22;68437;52.236;5.710;2023-09-18T08:37:55;19.40;99.90
18502;DHT22;68437;52.236;5.710;2023-09-18T08:40:23;19.30;99.90
18502;DHT22;68437;52.236;5.710;2023-09-18T08:42:52;19.40;99.90
18502;DHT22;68437;52.236;5.710;2023-09-18T08:45:23;19.40;99.90
18502;DHT22;68437;52.236;5.710;2023-09-18T08:47:51;19.40;99.90
18502;DHT22;68437;52.236;5.710;2023-09-18T08:50:19;19.40;99.90
18502;DHT22;68437;52.236;5.710;2023-09-18T08:52:49;19.50;99.90
18502;DHT22;68437;52.236;5.710;2023-09-18T08:55:16;19.60;99.90
18502;DHT22;68437;52.236;5.710;2023-09-18T08:57:44;19.60;99.90
18502;DHT22;68437;52.236;5.710;2023-09-18T09:00:13;19.80;99.90
18502;DHT22;68437;52.236;5.710;2023-09-18T09:02:43;19.70;99.90
18502;DHT22;68437;52.236;5.710;2023-09-18T09:05:10;19.70;99.90
18502;DHT22;68437;52.236;5.710;2023-09-18T09:07:36;19.70;99.90
18502;DHT22;68437;52.236;5.710;2023-09-18T09:10:05;19.70;99.90
18502;DHT22;68437;52.236;5.710;2023-09-18T09:12:52;19.70;99.90
18502;DHT22;68437;52.236;5.710;2023-09-18T09:15:20;19.70;99.90
18502;DHT22;68437;52.236;5.710;2023-09-18T09:17:46;19.80;99.90
18502;DHT22;68437;52.236;5.710;2023-09-18T09:20:15;19.80;99.90
18502;DHT22;68437;52.236;5.710;2023-09-18T09:22:42;19.80;99.90
18502;DHT22;68437;52.236;5.710;2023-09-18T09:25:27;19.70;99.90
18502;DHT22;68437;52.236;5.710;2023-09-18T09:27:54;19.60;99.90
18502;DHT22;68437;52.236;5.710;2023-09-18T09:30:23;19.70;99.90
18502;DHT22;68437;52.236;5.710;2023-09-18T09:32:50;19.80;99.90
18502;DHT22;68437;52.236;5.710;2023-09-18T09:35:22;19.90;99.90
18502;DHT22;68437;52.236;5.710;2023-09-18T09:37:49;19.90;99.90
18502;DHT22;68437;52.236;5.710;2023-09-18T09:40:19;20.00;99.90
18502;DHT22;68437;52.236;5.710;2023-09-18T09:42:50;20.20;99.90
18502;DHT22;68437;52.236;5.710;2023-09-18T09:45:19;20.20;99.90
18502;DHT22;68437;52.236;5.710;2023-09-18T09:47:46;20.30;99.90
18502;DHT22;68437;52.236;5.710;2023-09-18T09:50:15;20.30;99.90
18502;DHT22;68437;52.236;5.710;2023-09-18T09:52:46;20.40;99.90
18502;DHT22;68437;52.236;5.710;2023-09-18T09:55:22;20.50;99.90
18502;DHT22;68437;52.236;5.710;2023-09-18T09:57:53;20.50;99.90
18502;DHT22;68437;52.236;5.710;2023-09-18T10:00:23;20.50;99.90
18502;DHT22;68437;52.236;5.710;2023-09-18T10:03:00;20.50;99.90
18502;DHT22;68437;52.236;5.710;2023-09-18T10:05:30;20.40;99.90
18502;DHT22;68437;52.236;5.710;2023-09-18T10:07:59;20.40;99.90
18502;DHT22;68437;52.236;5.710;2023-09-18T10:10:30;20.40;99.90
18502;DHT22;68437;52.236;5.710;2023-09-18T10:13:02;20.30;99.90
18502;DHT22;68437;52.236;5.710;2023-09-18T10:15:34;20.20;99.90
18502;DHT22;68437;52.236;5.710;2023-09-18T10:18:05;20.00;99.90
18502;DHT22;68437;52.236;5.710;2023-09-18T10:20:37;20.00;99.90
18502;DHT22;68437;52.236;5.710;2023-09-18T10:25:55;19.90;99.90
18502;DHT22;68437;52.236;5.710;2023-09-18T10:28:30;20.10;99.90
18502;DHT22;68437;52.236;5.710;2023-09-18T10:30:58;20.20;99.90
18502;DHT22;68437;52.236;5.710;2023-09-18T10:33:27;20.20;99.90
18502;DHT22;68437;52.236;5.710;2023-09-18T10:35:56;20.10;99.90
18502;DHT22;68437;52.236;5.710;2023-09-18T10:38:24;20.00;99.90
18502;DHT22;68437;52.236;5.710;2023-09-18T10:40:53;20.00;99.90
18502;DHT22;68437;52.236;5.710;2023-09-18T10:43:20;20.00;99.90
18502;DHT22;68437;52.236;5.710;2023-09-18T10:45:49;20.00;99.90
18502;DHT22;68437;52.236;5.710;2023-09-18T10:48:19;20.10;99.90
18502;DHT22;68437;52.236;5.710;2023-09-18T10:50:48;20.40;99.90
18502;DHT22;68437;52.236;5.710;2023-09-18T10:53:15;20.50;99.90
18502;DHT22;68437;52.236;5.710;2023-09-18T10:55:44;20.70;99.90
18502;DHT22;68437;52.236;5.710;2023-09-18T10:58:11;21.00;99.90
18502;DHT22;68437;52.236;5.710;2023-09-18T11:00:41;21.20;99.90
18502;DHT22;68437;52.236;5.710;2023-09-18T11:03:15;21.60;99.90
18502;DHT22;68437;52.236;5.710;2023-09-18T11:05:44;21.70;99.90
18502;DHT22;68437;52.236;5.710;2023-09-18T11:08:26;21.60;99.90
18502;DHT22;68437;52.236;5.710;2023-09-18T11:11:00;21.40;99.90
18502;DHT22;68437;52.236;5.710;2023-09-18T11:13:31;21.20;99.90
18502;DHT22;68437;52.236;5.710;2023-09-18T11:16:02;20.90;99.90
18502;DHT22;68437;52.236;5.710;2023-09-18T11:18:34;20.70;99.90
18502;DHT22;68437;52.236;5.710;2023-09-18T11:21:08;20.60;99.90
18502;DHT22;68437;52.236;5.710;2023-09-18T11:23:36;20.60;99.90
18502;DHT22;68437;52.236;5.710;2023-09-18T11:26:07;20.60;99.90
18502;DHT22;68437;52.236;5.710;2023-09-18T11:28:34;20.80;99.90
18502;DHT22;68437;52.236;5.710;2023-09-18T11:31:03;21.00;99.90
18502;DHT22;68437;52.236;5.710;2023-09-18T11:33:36;21.00;99.90
18502;DHT22;68437;52.236;5.710;2023-09-18T11:36:07;21.20;99.90
18502;DHT22;68437;52.236;5.710;2023-09-18T11:38:54;21.20;99.90
18502;DHT22;68437;52.236;5.710;2023-09-18T11:41:25;21.20;99.90
18502;DHT22;68437;52.236;5.710;2023-09-18T11:43:53;21.20;99.90
18502;DHT22;68437;52.236;5.710;2023-09-18T11:46:45;21.20;99.90
18502;DHT22;68437;52.236;5.710;2023-09-18T11:49:14;21.30;99.90
18502;DHT22;68437;52.236;5.710;2023-09-18T11:51:46;21.20;99.90
18502;DHT22;68437;52.236;5.710;2023-09-18T11:54:13;21.10;99.90
18502;DHT22;68437;52.236;5.710;2023-09-18T11:56:41;21.00;99.90
18502;DHT22;68437;52.236;5.710;2023-09-18T11:59:08;21.00;99.90
18502;DHT22;68437;52.236;5.710;2023-09-18T12:01:36;21.00;99.90
18502;DHT22;68437;52.236;5.710;2023-09-18T12:04:05;21.20;99.90
18502;DHT22;68437;52.236;5.710;2023-09-18T12:06:34;21.30;99.90
18502;DHT22;68437;52.236;5.710;2023-09-18T12:09:02;21.30;99.90
18502;DHT22;68437;52.236;5.710;2023-09-18T12:11:30;21.30;99.90
18502;DHT22;68437;52.236;5.710;2023-09-18T12:13:56;21.70;99.90
18502;DHT22;68437;52.236;5.710;2023-09-18T12:16:24;22.10;99.90
18502;DHT22;68437;52.236;5.710;2023-09-18T12:18:51;22.00;99.90
18502;DHT22;68437;52.236;5.710;2023-09-18T12:21:18;21.90;99.90
18502;DHT22;68437;52.236;5.710;2023-09-18T12:23:46;21.90;99.90
18502;DHT22;68437;52.236;5.710;2023-09-18T12:26:14;21.90;99.90
18502;DHT22;68437;52.236;5.710;2023-09-18T12:28:42;22.00;99.90
18502;DHT22;68437;52.236;5.710;2023-09-18T12:31:10;22.10;99.90
18502;DHT22;68437;52.236;5.710;2023-09-18T12:33:38;22.50;99.90
18502;DHT22;68437;52.236;5.710;2023-09-18T12:36:07;22.50;99.90
18502;DHT22;68437;52.236;5.710;2023-09-18T12:38:35;22.40;99.90
18502;DHT22;68437;52.236;5.710;2023-09-18T12:41:04;22.30;99.90
18502;DHT22;68437;52.236;5.710;2023-09-18T12:43:37;22.10;99.90
18502;DHT22;68437;52.236;5.710;2023-09-18T12:46:05;21.90;99.90
18502;DHT22;68437;52.236;5.710;2023-09-18T12:48:36;22.20;99.90
18502;DHT22;68437;52.236;5.710;2023-09-18T12:51:04;22.70;99.90
18502;DHT22;68437;52.236;5.710;2023-09-18T12:53:31;22.80;99.90
18502;DHT22;68437;52.236;5.710;2023-09-18T12:56:07;22.60;99.90
18502;DHT22;68437;52.236;5.710;2023-09-18T12:58:34;22.60;99.90
18502;DHT22;68437;52.236;5.710;2023-09-18T13:01:04;22.90;99.90
18502;DHT22;68437;52.236;5.710;2023-09-18T13:03:35;22.90;99.90
18502;DHT22;68437;52.236;5.710;2023-09-18T13:06:09;22.80;99.90
18502;DHT22;68437;52.236;5.710;2023-09-18T13:08:37;22.80;99.90
18502;DHT22;68437;52.236;5.710;2023-09-18T13:11:03;22.90;99.90
18502;DHT22;68437;52.236;5.710;2023-09-18T13:13:33;23.10;99.90
18502;DHT22;68437;52.236;5.710;2023-09-18T13:16:03;23.20;99.90
18502;DHT22;68437;52.236;5.710;2023-09-18T13:18:31;23.20;99.90
18502;DHT22;68437;52.236;5.710;2023-09-18T13:20:58;23.30;99.90
18502;DHT22;68437;52.236;5.710;2023-09-18T13:23:28;23.30;99.90
18502;DHT22;68437;52.236;5.710;2023-09-18T13:25:59;23.20;99.90
18502;DHT22;68437;52.236;5.710;2023-09-18T13:28:26;23.40;99.90
18502;DHT22;68437;52.236;5.710;2023-09-18T13:30:57;23.30;99.90
18502;DHT22;68437;52.236;5.710;2023-09-18T13:33:25;23.30;99.90
18502;DHT22;68437;52.236;5.710;2023-09-18T13:35:53;23.30;99.90
18502;DHT22;68437;52.236;5.710;2023-09-18T13:38:22;23.20;99.90
18502;DHT22;68437;52.236;5.710;2023-09-18T13:40:49;23.10;99.90
18502;DHT22;68437;52.236;5.710;2023-09-18T13:43:16;22.90;99.90
18502;DHT22;68437;52.236;5.710;2023-09-18T13:45:44;22.90;99.90
18502;DHT22;68437;52.236;5.710;2023-09-18T13:48:12;22.80;99.90
18502;DHT22;68437;52.236;5.710;2023-09-18T13:50:41;23.00;99.90
18502;DHT22;68437;52.236;5.710;2023-09-18T13:53:08;22.90;99.90
18502;DHT22;68437;52.236;5.710;2023-09-18T13:55:35;22.70;99.90
18502;DHT22;68437;52.236;5.710;2023-09-18T13:58:02;22.60;99.90
18502;DHT22;68437;52.236;5.710;2023-09-18T14:00:29;22.50;99.90
18502;DHT22;68437;52.236;5.710;2023-09-18T14:02:57;22.70;99.90
18502;DHT22;68437;52.236;5.710;2023-09-18T14:05:25;23.00;99.90
18502;DHT22;68437;52.236;5.710;2023-09-18T14:07:54;23.00;99.90
18502;DHT22;68437;52.236;5.710;2023-09-18T14:10:25;22.90;99.90
18502;DHT22;68437;52.236;5.710;2023-09-18T14:12:52;23.10;99.90
18502;DHT22;68437;52.236;5.710;2023-09-18T14:15:19;23.20;99.90
18502;DHT22;68437;52.236;5.710;2023-09-18T14:17:46;23.30;99.90
18502;DHT22;68437;52.236;5.710;2023-09-18T14:20:13;23.30;99.90
18502;DHT22;68437;52.236;5.710;2023-09-18T14:22:45;23.50;99.90
18502;DHT22;68437;52.236;5.710;2023-09-18T14:25:12;23.60;99.90
18502;DHT22;68437;52.236;5.710;2023-09-18T14:27:39;23.70;99.90
18502;DHT22;68437;52.236;5.710;2023-09-18T14:30:07;23.60;99.90
18502;DHT22;68437;52.236;5.710;2023-09-18T14:32:34;23.80;99.90
18502;DHT22;68437;52.236;5.710;2023-09-18T14:35:02;23.70;99.90
18502;DHT22;68437;52.236;5.710;2023-09-18T14:37:31;23.50;99.90
18502;DHT22;68437;52.236;5.710;2023-09-18T14:39:59;23.40;99.90
18502;DHT22;68437;52.236;5.710;2023-09-18T14:42:26;23.30;99.90
18502;DHT22;68437;52.236;5.710;2023-09-18T14:44:53;23.30;99.90
18502;DHT22;68437;52.236;5.710;2023-09-18T14:47:19;23.20;99.90
18502;DHT22;68437;52.236;5.710;2023-09-18T14:49:46;23.20;99.90
18502;DHT22;68437;52.236;5.710;2023-09-18T14:52:14;23.10;99.90
18502;DHT22;68437;52.236;5.710;2023-09-18T14:54:41;23.00;99.90
18502;DHT22;68437;52.236;5.710;2023-09-18T14:57:09;22.90;99.90
18502;DHT22;68437;52.236;5.710;2023-09-18T14:59:36;22.80;99.90
18502;DHT22;68437;52.236;5.710;2023-09-18T15:02:04;22.70;99.90
18502;DHT22;68437;52.236;5.710;2023-09-18T15:04:32;22.50;99.90
18502;DHT22;68437;52.236;5.710;2023-09-18T15:06:59;22.30;99.90
18502;DHT22;68437;52.236;5.710;2023-09-18T15:09:26;22.20;99.90
18502;DHT22;68437;52.236;5.710;2023-09-18T15:11:53;22.10;99.90
18502;DHT22;68437;52.236;5.710;2023-09-18T15:14:21;22.00;99.90
18502;DHT22;68437;52.236;5.710;2023-09-18T15:16:48;22.00;99.90
18502;DHT22;68437;52.236;5.710;2023-09-18T15:19:15;21.90;99.90
18502;DHT22;68437;52.236;5.710;2023-09-18T15:21:43;21.90;99.90
18502;DHT22;68437;52.236;5.710;2023-09-18T15:24:10;21.80;99.90
18502;DHT22;68437;52.236;5.710;2023-09-18T15:26:36;21.70;99.90
18502;DHT22;68437;52.236;5.710;2023-09-18T15:29:03;21.60;99.90
18502;DHT22;68437;52.236;5.710;2023-09-18T15:31:31;21.40;99.90
18502;DHT22;68437;52.236;5.710;2023-09-18T15:33:59;21.10;99.90
18502;DHT22;68437;52.236;5.710;2023-09-18T15:36:26;20.70;99.90
18502;DHT22;68437;52.236;5.710;2023-09-18T15:38:53;20.10;99.90